createdAt,value
2018-04-24T00:00:09.205Z,1006
2018-04-24T00:00:49.721Z,1005.98
2018-04-24T00:01:30.242Z,1005.99
2018-04-24T00:02:10.753Z,1005.98
2018-04-24T00:02:51.274Z,1005.94
2018-04-24T00:03:31.794Z,1005.99
2018-04-24T00:04:12.323Z,1005.92
2018-04-24T00:04:52.880Z,1005.96
2018-04-24T00:05:33.401Z,1005.98
2018-04-24T00:06:13.924Z,1005.94
2018-04-24T00:06:54.478Z,1005.99
2018-04-24T00:07:34.996Z,1005.96
2018-04-24T00:08:15.510Z,1005.91
2018-04-24T00:08:56.039Z,1005.92
2018-04-24T00:09:36.566Z,1005.92
2018-04-24T00:10:17.082Z,1005.91
2018-04-24T00:10:57.603Z,1005.88
2018-04-24T00:11:38.127Z,1005.87
2018-04-24T00:12:18.641Z,1005.87
2018-04-24T00:12:59.204Z,1005.94
2018-04-24T00:13:39.711Z,1005.92
2018-04-24T00:14:20.228Z,1005.9
2018-04-24T00:15:00.751Z,1005.93
2018-04-24T00:15:41.274Z,1005.9
2018-04-24T00:16:21.808Z,1005.9
2018-04-24T00:17:02.328Z,1005.89
2018-04-24T00:17:42.852Z,1005.88
2018-04-24T00:18:23.406Z,1005.9
2018-04-24T00:19:03.889Z,1005.83
2018-04-24T00:19:44.501Z,1005.87
2018-04-24T00:20:25.009Z,1005.89
2018-04-24T00:21:05.529Z,1005.86
2018-04-24T00:21:46.048Z,1005.87
2018-04-24T00:22:26.575Z,1005.87
2018-04-24T00:23:07.096Z,1005.86
2018-04-24T00:23:47.613Z,1005.86
2018-04-24T00:24:28.131Z,1005.89
2018-04-24T00:25:08.642Z,1005.84
2018-04-24T00:25:49.165Z,1005.87
2018-04-24T00:26:29.689Z,1005.85
2018-04-24T00:27:10.205Z,1005.87
2018-04-24T00:27:50.740Z,1005.87
2018-04-24T00:28:31.241Z,1005.85
2018-04-24T00:29:11.757Z,1005.79
2018-04-24T00:29:52.287Z,1005.8
2018-04-24T00:30:32.802Z,1005.8
2018-04-24T00:31:13.348Z,1005.82
2018-04-24T00:31:53.887Z,1005.84
2018-04-24T00:32:34.407Z,1005.85
2018-04-24T00:33:14.928Z,1005.83
2018-04-24T00:33:55.467Z,1005.85
2018-04-24T00:34:35.998Z,1005.81
2018-04-24T00:35:16.518Z,1005.89
2018-04-24T00:35:57.043Z,1005.82
2018-04-24T00:36:37.565Z,1005.84
2018-04-24T00:37:18.087Z,1005.79
2018-04-24T00:37:58.601Z,1005.8
2018-04-24T00:38:39.114Z,1005.81
2018-04-24T00:39:19.636Z,1005.81
2018-04-24T00:40:00.167Z,1005.82
2018-04-24T00:40:40.695Z,1005.82
2018-04-24T00:41:21.216Z,1005.84
2018-04-24T00:42:01.728Z,1005.82
2018-04-24T00:42:42.257Z,1005.8
2018-04-24T00:43:22.788Z,1005.86
2018-04-24T00:44:03.296Z,1005.85
2018-04-24T00:44:43.832Z,1005.84
2018-04-24T00:45:24.365Z,1005.84
2018-04-24T00:46:04.887Z,1005.82
2018-04-24T00:46:45.398Z,1005.91
2018-04-24T00:47:25.916Z,1005.92
2018-04-24T00:48:06.436Z,1005.91
2018-04-24T00:48:46.959Z,1005.94
2018-04-24T00:49:27.478Z,1005.94
2018-04-24T00:50:08.000Z,1005.93
2018-04-24T00:50:48.540Z,1005.9
2018-04-24T00:51:29.058Z,1005.93
2018-04-24T00:52:09.573Z,1005.93
2018-04-24T00:52:50.098Z,1005.94
2018-04-24T00:53:30.621Z,1005.94
2018-04-24T00:54:11.142Z,1005.97
2018-04-24T00:54:51.707Z,1005.92
2018-04-24T00:55:32.191Z,1005.93
2018-04-24T00:56:12.717Z,1005.96
2018-04-24T00:56:53.241Z,1005.89
2018-04-24T00:57:33.877Z,1005.93
2018-04-24T00:58:14.407Z,1005.86
2018-04-24T00:58:54.913Z,1005.9
2018-04-24T00:59:35.430Z,1005.96
2018-04-24T01:00:15.952Z,1005.96
2018-04-24T01:00:56.474Z,1005.96
2018-04-24T01:01:36.987Z,1005.96
2018-04-24T01:02:17.508Z,1005.95
2018-04-24T01:02:58.018Z,1005.95
2018-04-24T01:03:38.535Z,1005.98
2018-04-24T01:04:19.041Z,1005.94
2018-04-24T01:04:59.580Z,1005.97
2018-04-24T01:05:40.083Z,1005.97
2018-04-24T01:06:20.609Z,1005.99
2018-04-24T01:07:01.138Z,1005.96
2018-04-24T01:07:41.640Z,1005.98
2018-04-24T01:08:22.172Z,1005.97
2018-04-24T01:09:02.691Z,1005.95
2018-04-24T01:09:43.216Z,1005.92
2018-04-24T01:10:23.738Z,1005.94
2018-04-24T01:11:04.262Z,1005.95
2018-04-24T01:11:44.788Z,1005.93
2018-04-24T01:12:25.313Z,1005.94
2018-04-24T01:13:05.829Z,1005.93
2018-04-24T01:13:46.358Z,1005.92
2018-04-24T01:14:26.874Z,1005.93
2018-04-24T01:15:07.395Z,1005.96
2018-04-24T01:15:47.912Z,1005.93
2018-04-24T01:16:28.428Z,1005.98
2018-04-24T01:17:08.973Z,1005.97
2018-04-24T01:17:49.490Z,1005.95
2018-04-24T01:18:30.034Z,1005.95
2018-04-24T01:19:10.550Z,1005.9
2018-04-24T01:19:51.083Z,1005.92
2018-04-24T01:20:31.607Z,1005.9
2018-04-24T01:21:12.112Z,1005.88
2018-04-24T01:21:52.623Z,1005.93
2018-04-24T01:22:33.137Z,1005.93
2018-04-24T01:23:13.672Z,1005.96
2018-04-24T01:23:54.169Z,1005.97
2018-04-24T01:24:34.699Z,1005.98
2018-04-24T01:25:15.217Z,1005.96
2018-04-24T01:25:55.737Z,1005.97
2018-04-24T01:26:36.266Z,1005.98
2018-04-24T01:27:16.788Z,1006.09
2018-04-24T01:27:57.316Z,1006.04
2018-04-24T01:28:37.843Z,1006.02
2018-04-24T01:29:18.366Z,1006.07
2018-04-24T01:29:58.888Z,1006.07
2018-04-24T01:30:39.402Z,1006.06
2018-04-24T01:31:19.925Z,1006.06
2018-04-24T01:32:00.450Z,1006.03
2018-04-24T01:32:40.970Z,1006.03
2018-04-24T01:33:21.484Z,1006.07
2018-04-24T01:34:02.002Z,1006.05
2018-04-24T01:34:42.518Z,1006.06
2018-04-24T01:35:23.033Z,1006.11
2018-04-24T01:36:03.553Z,1006.08
2018-04-24T01:36:44.062Z,1006.13
2018-04-24T01:37:24.597Z,1006.18
2018-04-24T01:38:05.115Z,1006.16
2018-04-24T01:38:45.633Z,1006.19
2018-04-24T01:39:26.155Z,1006.1
2018-04-24T01:40:06.673Z,1006.15
2018-04-24T01:40:47.195Z,1006.1
2018-04-24T01:41:27.723Z,1006.09
2018-04-24T01:42:08.249Z,1006.16
2018-04-24T01:42:48.769Z,1006.16
2018-04-24T01:43:29.289Z,1006.18
2018-04-24T01:44:09.921Z,1006.23
2018-04-24T01:44:50.440Z,1006.24
2018-04-24T01:45:30.968Z,1006.25
2018-04-24T01:46:11.496Z,1006.21
2018-04-24T01:46:52.019Z,1006.23
2018-04-24T01:47:32.525Z,1006.22
2018-04-24T01:48:13.063Z,1006.24
2018-04-24T01:48:53.580Z,1006.24
2018-04-24T01:49:34.182Z,1006.22
2018-04-24T01:50:14.677Z,1006.24
2018-04-24T01:50:55.186Z,1006.23
2018-04-24T01:51:35.706Z,1006.25
2018-04-24T01:52:16.222Z,1006.24
2018-04-24T01:52:56.744Z,1006.22
2018-04-24T01:53:37.268Z,1006.22
2018-04-24T01:54:17.790Z,1006.24
2018-04-24T01:54:58.317Z,1006.23
2018-04-24T01:55:38.825Z,1006.26
2018-04-24T01:56:19.345Z,1006.26
2018-04-24T01:56:59.868Z,1006.25
2018-04-24T01:57:40.382Z,1006.26
2018-04-24T01:58:20.897Z,1006.25
2018-04-24T01:59:01.410Z,1006.28
2018-04-24T01:59:41.927Z,1006.25
2018-04-24T02:00:22.451Z,1006.25
2018-04-24T02:01:02.970Z,1006.21
2018-04-24T02:01:43.485Z,1006.21
2018-04-24T02:02:24.001Z,1006.24
2018-04-24T02:03:04.525Z,1006.22
2018-04-24T02:03:45.038Z,1006.19
2018-04-24T02:04:25.590Z,1006.23
2018-04-24T02:05:06.085Z,1006.23
2018-04-24T02:05:46.608Z,1006.25
2018-04-24T02:06:27.138Z,1006.21
2018-04-24T02:07:07.660Z,1006.24
2018-04-24T02:07:48.183Z,1006.23
2018-04-24T02:08:28.703Z,1006.21
2018-04-24T02:09:09.218Z,1006.24
2018-04-24T02:09:49.753Z,1006.27
2018-04-24T02:10:30.266Z,1006.23
2018-04-24T02:11:10.785Z,1006.2
2018-04-24T02:11:51.307Z,1006.23
2018-04-24T02:12:31.819Z,1006.24
2018-04-24T02:13:12.335Z,1006.23
2018-04-24T02:13:52.864Z,1006.2
2018-04-24T02:14:33.386Z,1006.14
2018-04-24T02:15:13.903Z,1006.2
2018-04-24T02:15:54.425Z,1006.19
2018-04-24T02:16:34.957Z,1006.21
2018-04-24T02:17:15.476Z,1006.2
2018-04-24T02:17:55.988Z,1006.21
2018-04-24T02:18:36.521Z,1006.22
2018-04-24T02:19:17.023Z,1006.19
2018-04-24T02:19:57.547Z,1006.22
2018-04-24T02:20:38.063Z,1006.16
2018-04-24T02:21:18.582Z,1006.22
2018-04-24T02:21:59.102Z,1006.16
2018-04-24T02:22:39.656Z,1006.17
2018-04-24T02:23:20.140Z,1006.19
2018-04-24T02:24:00.653Z,1006.19
2018-04-24T02:24:41.154Z,1006.15
2018-04-24T02:25:21.669Z,1006.15
2018-04-24T02:26:02.190Z,1006.15
2018-04-24T02:26:42.702Z,1006.17
2018-04-24T02:27:23.224Z,1006.16
2018-04-24T02:28:03.747Z,1006.15
2018-04-24T02:28:44.265Z,1006.18
2018-04-24T02:29:24.794Z,1006.13
2018-04-24T02:30:05.325Z,1006.12
2018-04-24T02:30:45.840Z,1006.12
2018-04-24T02:31:26.359Z,1006.14
2018-04-24T02:32:06.933Z,1006.14
2018-04-24T02:32:47.450Z,1006.15
2018-04-24T02:33:27.970Z,1006.13
2018-04-24T02:34:08.485Z,1006.11
2018-04-24T02:34:48.995Z,1006.18
2018-04-24T02:35:29.526Z,1006.17
2018-04-24T02:36:10.042Z,1006.13
2018-04-24T02:36:50.579Z,1006.16
2018-04-24T02:37:31.088Z,1006.12
2018-04-24T02:38:11.602Z,1006.09
2018-04-24T02:38:52.131Z,1006.07
2018-04-24T02:39:32.667Z,1006.1
2018-04-24T02:40:13.178Z,1006.08
2018-04-24T02:40:53.698Z,1006.06
2018-04-24T02:41:34.216Z,1006.03
2018-04-24T02:42:14.732Z,1006.02
2018-04-24T02:42:55.235Z,1006.1
2018-04-24T02:43:35.765Z,1006.05
2018-04-24T02:44:16.281Z,1006.04
2018-04-24T02:44:56.797Z,1006.01
2018-04-24T02:45:37.333Z,1006.05
2018-04-24T02:46:17.849Z,1006.04
2018-04-24T02:46:58.373Z,1006.04
2018-04-24T02:47:38.894Z,1006
2018-04-24T02:48:19.415Z,1006.01
2018-04-24T02:48:59.933Z,1006.05
2018-04-24T02:49:40.463Z,1006.04
2018-04-24T02:50:20.997Z,1006.04
2018-04-24T02:51:01.523Z,1006.07
2018-04-24T02:51:42.045Z,1006.06
2018-04-24T02:52:22.558Z,1006.06
2018-04-24T02:53:03.072Z,1006.05
2018-04-24T02:53:43.592Z,1006.04
2018-04-24T02:54:24.107Z,1006.04
2018-04-24T02:55:04.619Z,1006.07
2018-04-24T02:55:45.218Z,1006.07
2018-04-24T02:56:25.721Z,1006.07
2018-04-24T02:57:06.251Z,1006.1
2018-04-24T02:57:46.775Z,1006.12
2018-04-24T02:58:27.299Z,1006.13
2018-04-24T02:59:07.805Z,1006.1
2018-04-24T02:59:48.315Z,1006.1
2018-04-24T03:00:28.830Z,1006.1
2018-04-24T03:01:09.349Z,1006.1
2018-04-24T03:01:49.869Z,1006.06
2018-04-24T03:02:30.375Z,1006.08
2018-04-24T03:03:10.909Z,1006.05
2018-04-24T03:03:51.429Z,1006.12
2018-04-24T03:04:31.958Z,1006.09
2018-04-24T03:05:12.475Z,1006.13
2018-04-24T03:05:53.004Z,1006.06
2018-04-24T03:06:33.508Z,1006.07
2018-04-24T03:07:14.030Z,1006.14
2018-04-24T03:07:54.553Z,1006.1
2018-04-24T03:08:35.078Z,1006.07
2018-04-24T03:09:15.600Z,1006.07
2018-04-24T03:09:56.120Z,1006.05
2018-04-24T03:10:36.635Z,1006.03
2018-04-24T03:11:17.166Z,1006.03
2018-04-24T03:11:57.774Z,1006.03
2018-04-24T03:12:38.212Z,1005.97
2018-04-24T03:13:18.730Z,1006.01
2018-04-24T03:13:59.249Z,1006.02
2018-04-24T03:14:39.793Z,1006.02
2018-04-24T03:15:20.294Z,1006.04
2018-04-24T03:16:00.816Z,1006.06
2018-04-24T03:16:41.329Z,1006.1
2018-04-24T03:17:21.864Z,1006.06
2018-04-24T03:18:02.387Z,1006.06
2018-04-24T03:18:42.913Z,1006.03
2018-04-24T03:19:23.430Z,1006.03
2018-04-24T03:20:03.951Z,1006.06
2018-04-24T03:20:44.464Z,1006.05
2018-04-24T03:21:24.996Z,1006.04
2018-04-24T03:22:05.518Z,1006
2018-04-24T03:22:46.036Z,1006.08
2018-04-24T03:23:26.556Z,1006.05
2018-04-24T03:24:07.076Z,1006.03
2018-04-24T03:24:47.589Z,1006.04
2018-04-24T03:25:28.106Z,1006.07
2018-04-24T03:26:08.624Z,1006.05
2018-04-24T03:26:49.156Z,1006.09
2018-04-24T03:27:29.682Z,1006.11
2018-04-24T03:28:10.216Z,1006.08
2018-04-24T03:28:50.754Z,1006.05
2018-04-24T03:29:31.279Z,1006.06
2018-04-24T03:30:11.806Z,1006.08
2018-04-24T03:30:52.329Z,1006.06
2018-04-24T03:31:32.847Z,1006.05
2018-04-24T03:32:13.368Z,1006.02
2018-04-24T03:32:53.889Z,1006.05
2018-04-24T03:33:34.405Z,1006.04
2018-04-24T03:34:14.942Z,1006.05
2018-04-24T03:34:55.458Z,1006.1
2018-04-24T03:35:35.978Z,1005.99
2018-04-24T03:36:16.489Z,1005.99
2018-04-24T03:36:57.005Z,1005.97
2018-04-24T03:37:37.532Z,1005.97
2018-04-24T03:38:18.048Z,1005.96
2018-04-24T03:38:58.564Z,1005.94
2018-04-24T03:39:39.081Z,1005.93
2018-04-24T03:40:19.593Z,1005.95
2018-04-24T03:41:00.113Z,1005.95
2018-04-24T03:41:40.629Z,1005.95
2018-04-24T03:42:21.141Z,1005.91
2018-04-24T03:43:01.663Z,1005.89
2018-04-24T03:43:42.171Z,1005.96
2018-04-24T03:44:22.688Z,1005.94
2018-04-24T03:45:03.204Z,1005.93
2018-04-24T03:45:43.737Z,1005.9
2018-04-24T03:46:24.253Z,1005.86
2018-04-24T03:47:04.770Z,1005.9
2018-04-24T03:47:45.284Z,1005.84
2018-04-24T03:48:25.811Z,1005.86
2018-04-24T03:49:06.332Z,1005.88
2018-04-24T03:49:46.857Z,1005.9
2018-04-24T03:50:27.369Z,1005.88
2018-04-24T03:51:07.895Z,1005.89
2018-04-24T03:51:48.410Z,1005.92
2018-04-24T03:52:28.922Z,1005.92
2018-04-24T03:53:09.462Z,1005.89
2018-04-24T03:53:49.979Z,1005.89
2018-04-24T03:54:30.493Z,1005.9
2018-04-24T03:55:11.009Z,1005.95
2018-04-24T03:55:51.527Z,1005.97
2018-04-24T03:56:32.047Z,1005.93
2018-04-24T03:57:12.574Z,1005.88
2018-04-24T03:57:53.132Z,1005.96
2018-04-24T03:58:33.647Z,1005.95
2018-04-24T03:59:14.159Z,1005.93
2018-04-24T03:59:54.674Z,1005.96
2018-04-24T04:00:35.191Z,1005.92
2018-04-24T04:01:15.707Z,1005.91
2018-04-24T04:01:56.225Z,1005.93
2018-04-24T04:02:36.729Z,1005.96
2018-04-24T04:03:17.258Z,1005.91
2018-04-24T04:03:57.780Z,1005.9
2018-04-24T04:04:38.301Z,1005.95
2018-04-24T04:05:18.825Z,1005.92
2018-04-24T04:05:59.343Z,1005.92
2018-04-24T04:06:39.860Z,1005.9
2018-04-24T04:07:20.437Z,1005.93
2018-04-24T04:08:00.910Z,1005.93
2018-04-24T04:08:41.427Z,1005.91
2018-04-24T04:09:21.955Z,1005.91
2018-04-24T04:10:02.468Z,1005.89
2018-04-24T04:10:42.995Z,1005.9
2018-04-24T04:11:23.516Z,1005.92
2018-04-24T04:12:04.034Z,1005.91
2018-04-24T04:12:44.556Z,1005.89
2018-04-24T04:13:25.070Z,1005.85
2018-04-24T04:14:05.599Z,1005.88
2018-04-24T04:14:46.112Z,1005.84
2018-04-24T04:15:26.631Z,1005.84
2018-04-24T04:16:07.146Z,1005.84
2018-04-24T04:16:47.669Z,1005.84
2018-04-24T04:17:28.180Z,1005.88
2018-04-24T04:18:08.694Z,1005.86
2018-04-24T04:18:49.212Z,1005.86
2018-04-24T04:19:29.731Z,1005.82
2018-04-24T04:20:10.255Z,1005.87
2018-04-24T04:20:50.768Z,1005.87
2018-04-24T04:21:31.296Z,1005.88
2018-04-24T04:22:11.811Z,1005.84
2018-04-24T04:22:52.326Z,1005.87
2018-04-24T04:23:32.871Z,1005.92
2018-04-24T04:24:13.376Z,1005.91
2018-04-24T04:24:53.893Z,1005.94
2018-04-24T04:25:34.447Z,1005.9
2018-04-24T04:26:14.975Z,1005.96
2018-04-24T04:26:55.461Z,1005.94
2018-04-24T04:27:35.998Z,1005.99
2018-04-24T04:28:16.499Z,1005.99
2018-04-24T04:28:57.018Z,1006.02
2018-04-24T04:29:37.535Z,1005.98
2018-04-24T04:30:18.078Z,1006.01
2018-04-24T04:30:58.595Z,1005.98
2018-04-24T04:31:39.113Z,1006.02
2018-04-24T04:32:19.629Z,1006
2018-04-24T04:33:00.181Z,1006.04
2018-04-24T04:33:40.674Z,1006.04
2018-04-24T04:34:21.193Z,1006.03
2018-04-24T04:35:01.714Z,1006.09
2018-04-24T04:35:42.236Z,1006.06
2018-04-24T04:36:22.762Z,1006.13
2018-04-24T04:37:03.287Z,1006.1
2018-04-24T04:37:43.802Z,1006.16
2018-04-24T04:38:24.351Z,1006.18
2018-04-24T04:39:04.878Z,1006.18
2018-04-24T04:39:45.395Z,1006.2
2018-04-24T04:40:25.913Z,1006.25
2018-04-24T04:41:06.423Z,1006.26
2018-04-24T04:41:46.961Z,1006.21
2018-04-24T04:42:27.486Z,1006.21
2018-04-24T04:43:08.010Z,1006.28
2018-04-24T04:43:48.526Z,1006.27
2018-04-24T04:44:29.048Z,1006.25
2018-04-24T04:45:09.552Z,1006.25
2018-04-24T04:45:50.073Z,1006.25
2018-04-24T04:46:30.586Z,1006.23
2018-04-24T04:47:11.122Z,1006.23
2018-04-24T04:47:51.665Z,1006.23
2018-04-24T04:48:32.157Z,1006.26
2018-04-24T04:49:12.688Z,1006.25
2018-04-24T04:49:53.210Z,1006.25
2018-04-24T04:50:33.727Z,1006.28
2018-04-24T04:51:14.239Z,1006.29
2018-04-24T04:51:54.762Z,1006.3
2018-04-24T04:52:35.276Z,1006.26
2018-04-24T04:53:15.800Z,1006.25
2018-04-24T04:53:56.319Z,1006.24
2018-04-24T04:54:36.847Z,1006.26
2018-04-24T04:55:17.380Z,1006.26
2018-04-24T04:55:57.934Z,1006.32
2018-04-24T04:56:38.491Z,1006.31
2018-04-24T04:57:19.000Z,1006.31
2018-04-24T04:57:59.516Z,1006.27
2018-04-24T04:58:40.039Z,1006.24
2018-04-24T04:59:20.558Z,1006.28
2018-04-24T05:00:01.073Z,1006.29
2018-04-24T05:00:41.612Z,1006.24
2018-04-24T05:01:22.132Z,1006.22
2018-04-24T05:02:02.654Z,1006.26
2018-04-24T05:02:43.173Z,1006.22
2018-04-24T05:03:23.703Z,1006.24
2018-04-24T05:04:04.242Z,1006.21
2018-04-24T05:04:44.767Z,1006.18
2018-04-24T05:05:25.274Z,1006.2
2018-04-24T05:06:05.796Z,1006.24
2018-04-24T05:06:46.321Z,1006.2
2018-04-24T05:07:26.850Z,1006.26
2018-04-24T05:08:07.366Z,1006.23
2018-04-24T05:08:47.875Z,1006.26
2018-04-24T05:09:28.399Z,1006.27
2018-04-24T05:10:08.961Z,1006.33
2018-04-24T05:10:49.479Z,1006.3
2018-04-24T05:11:30.028Z,1006.32
2018-04-24T05:12:10.537Z,1006.29
2018-04-24T05:12:51.060Z,1006.32
2018-04-24T05:13:31.701Z,1006.35
2018-04-24T05:14:12.220Z,1006.35
2018-04-24T05:14:52.728Z,1006.38
2018-04-24T05:15:33.239Z,1006.4
2018-04-24T05:16:13.763Z,1006.38
2018-04-24T05:16:54.288Z,1006.32
2018-04-24T05:17:34.819Z,1006.38
2018-04-24T05:18:15.362Z,1006.38
2018-04-24T05:18:55.901Z,1006.32
2018-04-24T05:19:36.422Z,1006.33
2018-04-24T05:20:16.937Z,1006.34
2018-04-24T05:20:57.470Z,1006.33
2018-04-24T05:21:37.994Z,1006.33
2018-04-24T05:22:18.501Z,1006.31
2018-04-24T05:22:59.322Z,1006.31
2018-04-24T05:24:52.407Z,1006.36
2018-04-24T05:25:32.925Z,1006.36
2018-04-24T05:26:13.437Z,1006.32
2018-04-24T05:26:53.948Z,1006.38
2018-04-24T05:27:34.473Z,1006.37
2018-04-24T05:28:14.990Z,1006.36
2018-04-24T05:28:55.499Z,1006.34
2018-04-24T05:29:36.023Z,1006.36
2018-04-24T05:30:16.562Z,1006.39
2018-04-24T05:30:57.077Z,1006.39
2018-04-24T05:31:37.598Z,1006.36
2018-04-24T05:32:18.120Z,1006.35
2018-04-24T05:32:58.628Z,1006.37
2018-04-24T05:33:39.151Z,1006.43
2018-04-24T05:34:19.731Z,1006.41
2018-04-24T05:35:00.296Z,1006.4
2018-04-24T05:35:40.780Z,1006.4
2018-04-24T05:36:21.262Z,1006.46
2018-04-24T05:37:01.806Z,1006.4
2018-04-24T05:37:42.320Z,1006.41
2018-04-24T05:38:22.836Z,1006.45
2018-04-24T05:39:03.364Z,1006.41
2018-04-24T05:39:43.892Z,1006.37
2018-04-24T05:40:24.404Z,1006.37
2018-04-24T05:41:04.908Z,1006.39
2018-04-24T05:41:45.440Z,1006.36
2018-04-24T05:42:25.978Z,1006.42
2018-04-24T05:43:06.473Z,1006.42
2018-04-24T05:43:46.993Z,1006.4
2018-04-24T05:44:27.539Z,1006.39
2018-04-24T05:45:08.045Z,1006.41
2018-04-24T05:45:48.565Z,1006.45
2018-04-24T05:46:29.090Z,1006.46
2018-04-24T05:47:09.608Z,1006.45
2018-04-24T05:47:50.134Z,1006.47
2018-04-24T05:48:31.252Z,1006.43
2018-04-24T05:49:11.569Z,1006.48
2018-04-24T05:49:52.084Z,1006.5
2018-04-24T05:50:32.603Z,1006.51
2018-04-24T05:51:13.116Z,1006.54
2018-04-24T05:51:53.621Z,1006.55
2018-04-24T05:52:34.141Z,1006.49
2018-04-24T05:53:14.651Z,1006.51
2018-04-24T05:53:55.182Z,1006.48
2018-04-24T05:54:35.696Z,1006.5
2018-04-24T05:55:16.209Z,1006.48
2018-04-24T05:55:56.720Z,1006.48
2018-04-24T05:56:37.255Z,1006.45
2018-04-24T05:57:17.802Z,1006.51
2018-04-24T05:57:58.302Z,1006.47
2018-04-24T05:58:38.820Z,1006.51
2018-04-24T05:59:19.366Z,1006.5
2018-04-24T05:59:59.872Z,1006.49
2018-04-24T06:00:40.406Z,1006.46
2018-04-24T06:01:20.901Z,1006.5
2018-04-24T06:02:01.423Z,1006.53
2018-04-24T06:02:41.940Z,1006.49
2018-04-24T06:03:22.470Z,1006.46
2018-04-24T06:04:03.004Z,1006.49
2018-04-24T06:04:43.521Z,1006.51
2018-04-24T06:05:24.053Z,1006.45
2018-04-24T06:06:04.568Z,1006.46
2018-04-24T06:06:45.121Z,1006.44
2018-04-24T06:07:25.664Z,1006.46
2018-04-24T06:08:06.191Z,1006.45
2018-04-24T06:08:46.771Z,1006.48
2018-04-24T06:09:27.299Z,1006.43
2018-04-24T06:10:07.893Z,1006.4
2018-04-24T06:10:48.413Z,1006.41
2018-04-24T06:11:28.934Z,1006.47
2018-04-24T06:12:09.463Z,1006.42
2018-04-24T06:12:49.969Z,1006.47
2018-04-24T06:13:30.488Z,1006.44
2018-04-24T06:14:11.016Z,1006.41
2018-04-24T06:14:51.556Z,1006.5
2018-04-24T06:15:32.071Z,1006.44
2018-04-24T06:16:12.573Z,1006.45
2018-04-24T06:16:53.106Z,1006.47
2018-04-24T06:17:33.634Z,1006.46
2018-04-24T06:18:14.161Z,1006.5
2018-04-24T06:18:54.683Z,1006.5
2018-04-24T06:19:35.194Z,1006.46
2018-04-24T06:20:15.714Z,1006.44
2018-04-24T06:20:56.240Z,1006.48
2018-04-24T06:21:36.753Z,1006.53
2018-04-24T06:22:17.273Z,1006.48
2018-04-24T06:22:57.829Z,1006.52
2018-04-24T06:23:38.310Z,1006.47
2018-04-24T06:24:18.829Z,1006.53
2018-04-24T06:24:59.350Z,1006.51
2018-04-24T06:25:39.869Z,1006.52
2018-04-24T06:26:20.415Z,1006.5
2018-04-24T06:27:00.972Z,1006.47
2018-04-24T06:27:41.527Z,1006.51
2018-04-24T06:28:22.095Z,1006.51
2018-04-24T06:29:02.546Z,1006.53
2018-04-24T06:29:43.081Z,1006.52
2018-04-24T06:30:23.599Z,1006.56
2018-04-24T06:31:04.125Z,1006.55
2018-04-24T06:31:44.650Z,1006.55
2018-04-24T06:32:25.156Z,1006.52
2018-04-24T06:33:05.753Z,1006.54
2018-04-24T06:33:46.229Z,1006.57
2018-04-24T06:34:26.754Z,1006.56
2018-04-24T06:35:07.307Z,1006.55
2018-04-24T06:35:47.802Z,1006.6
2018-04-24T06:36:28.345Z,1006.53
2018-04-24T06:37:08.881Z,1006.56
2018-04-24T06:37:49.415Z,1006.59
2018-04-24T06:38:29.984Z,1006.49
2018-04-24T06:39:10.491Z,1006.54
2018-04-24T06:39:51.006Z,1006.5
2018-04-24T06:40:31.528Z,1006.52
2018-04-24T06:41:12.043Z,1006.5
2018-04-24T06:41:52.551Z,1006.5
2018-04-24T06:42:33.066Z,1006.52
2018-04-24T06:43:13.582Z,1006.49
2018-04-24T06:43:54.091Z,1006.52
2018-04-24T06:44:34.621Z,1006.49
2018-04-24T06:45:15.145Z,1006.52
2018-04-24T06:45:55.638Z,1006.51
2018-04-24T06:46:36.175Z,1006.51
2018-04-24T06:47:16.694Z,1006.51
2018-04-24T06:47:57.272Z,1006.45
2018-04-24T06:48:37.764Z,1006.5
2018-04-24T06:49:18.281Z,1006.46
2018-04-24T06:49:58.805Z,1006.45
2018-04-24T06:50:39.324Z,1006.46
2018-04-24T06:51:19.846Z,1006.46
2018-04-24T06:52:00.373Z,1006.48
2018-04-24T06:52:40.902Z,1006.46
2018-04-24T06:53:21.416Z,1006.41
2018-04-24T06:54:01.974Z,1006.46
2018-04-24T06:54:42.504Z,1006.48
2018-04-24T06:55:23.027Z,1006.46
2018-04-24T06:56:03.548Z,1006.45
2018-04-24T06:56:44.067Z,1006.46
2018-04-24T06:57:24.584Z,1006.45
2018-04-24T06:58:05.092Z,1006.47
2018-04-24T06:58:45.612Z,1006.52
2018-04-24T06:59:26.122Z,1006.49
2018-04-24T07:00:06.661Z,1006.5
2018-04-24T07:00:47.216Z,1006.51
2018-04-24T07:01:27.719Z,1006.49
2018-04-24T07:02:08.225Z,1006.51
2018-04-24T07:02:48.737Z,1006.48
2018-04-24T07:03:29.276Z,1006.49
2018-04-24T07:04:09.765Z,1006.48
2018-04-24T07:04:50.294Z,1006.52
2018-04-24T07:05:30.769Z,1006.47
2018-04-24T07:06:11.270Z,1006.53
2018-04-24T07:06:51.777Z,1006.53
2018-04-24T07:07:32.297Z,1006.57
2018-04-24T07:08:12.810Z,1006.54
2018-04-24T07:08:53.327Z,1006.55
2018-04-24T07:09:33.887Z,1006.52
2018-04-24T07:10:14.410Z,1006.59
2018-04-24T07:10:54.926Z,1006.61
2018-04-24T07:11:35.446Z,1006.6
2018-04-24T07:12:15.953Z,1006.64
2018-04-24T07:12:56.501Z,1006.69
2018-04-24T07:13:37.011Z,1006.64
2018-04-24T07:14:17.533Z,1006.7
2018-04-24T07:14:58.401Z,1006.65
2018-04-24T07:15:38.910Z,1006.66
2018-04-24T07:16:20.248Z,1006.65
2018-04-24T07:17:00.769Z,1006.64
2018-04-24T07:17:41.286Z,1006.61
2018-04-24T07:18:21.800Z,1006.64
2018-04-24T07:19:02.362Z,1006.64
2018-04-24T07:19:42.880Z,1006.67
2018-04-24T07:20:23.352Z,1006.67
2018-04-24T07:21:03.875Z,1006.6
2018-04-24T07:21:44.382Z,1006.66
2018-04-24T07:22:24.924Z,1006.68
2018-04-24T07:23:05.438Z,1006.68
2018-04-24T07:23:45.996Z,1006.65
2018-04-24T07:24:26.452Z,1006.63
2018-04-24T07:25:06.949Z,1006.68
2018-04-24T07:25:47.471Z,1006.64
2018-04-24T07:26:27.984Z,1006.71
2018-04-24T07:27:08.555Z,1006.69
2018-04-24T07:27:48.977Z,1006.7
2018-04-24T07:28:29.492Z,1006.71
2018-04-24T07:29:10.026Z,1006.71
2018-04-24T07:29:50.572Z,1006.62
2018-04-24T07:30:31.101Z,1006.72
2018-04-24T07:31:11.595Z,1006.73
2018-04-24T07:31:52.244Z,1006.71
2018-04-24T07:32:32.630Z,1006.73
2018-04-24T07:33:13.154Z,1006.72
2018-04-24T07:33:53.718Z,1006.71
2018-04-24T07:34:34.412Z,1006.68
2018-04-24T07:35:14.994Z,1006.66
2018-04-24T07:35:55.547Z,1006.65
2018-04-24T07:36:36.039Z,1006.67
2018-04-24T07:37:16.539Z,1006.67
2018-04-24T07:37:57.003Z,1006.65
2018-04-24T07:38:37.506Z,1006.65
2018-04-24T07:39:18.009Z,1006.69
2018-04-24T07:39:58.531Z,1006.71
2018-04-24T07:40:38.987Z,1006.67
2018-04-24T07:41:19.501Z,1006.72
2018-04-24T07:42:00.072Z,1006.69
2018-04-24T07:42:40.556Z,1006.68
2018-04-24T07:43:21.092Z,1006.69
2018-04-24T07:44:01.594Z,1006.65
2018-04-24T07:44:42.153Z,1006.63
2018-04-24T07:45:22.653Z,1006.65
2018-04-24T07:46:03.181Z,1006.67
2018-04-24T07:46:43.682Z,1006.65
2018-04-24T07:47:24.175Z,1006.67
2018-04-24T07:48:04.627Z,1006.63
2018-04-24T07:48:45.109Z,1006.66
2018-04-24T07:49:25.604Z,1006.64
2018-04-24T07:50:06.108Z,1006.69
2018-04-24T07:50:46.615Z,1006.67
2018-04-24T07:51:27.138Z,1006.69
2018-04-24T07:52:07.653Z,1006.64
2018-04-24T07:52:48.171Z,1006.67
2018-04-24T07:53:28.699Z,1006.62
2018-04-24T07:54:09.220Z,1006.61
2018-04-24T07:54:49.781Z,1006.62
2018-04-24T07:55:30.304Z,1006.71
2018-04-24T07:56:10.821Z,1006.65
2018-04-24T07:56:51.330Z,1006.6
2018-04-24T07:57:31.850Z,1006.66
2018-04-24T07:58:12.452Z,1006.66
2018-04-24T07:58:52.954Z,1006.67
2018-04-24T07:59:33.475Z,1006.65
2018-04-24T08:00:14.078Z,1006.67
2018-04-24T08:00:54.582Z,1006.71
2018-04-24T08:01:35.094Z,1006.69
2018-04-24T08:02:15.654Z,1006.68
2018-04-24T08:02:56.171Z,1006.63
2018-04-24T08:03:36.693Z,1006.69
2018-04-24T08:04:17.215Z,1006.66
2018-04-24T08:04:57.764Z,1006.64
2018-04-24T08:05:38.291Z,1006.66
2018-04-24T08:06:18.803Z,1006.63
2018-04-24T08:06:59.339Z,1006.62
2018-04-24T08:07:39.911Z,1006.69
2018-04-24T08:08:20.429Z,1006.62
2018-04-24T08:09:00.947Z,1006.63
2018-04-24T08:09:41.473Z,1006.61
2018-04-24T08:10:22.006Z,1006.61
2018-04-24T08:11:02.523Z,1006.61
2018-04-24T08:11:43.040Z,1006.62
2018-04-24T08:12:23.586Z,1006.59
2018-04-24T08:13:04.109Z,1006.6